createdAt,value
2018-12-19T00:01:52.459Z,1023.3
2018-12-19T00:06:52.489Z,1023.4
2018-12-19T00:11:52.271Z,1023.4
2018-12-19T00:16:52.265Z,1023.4
2018-12-19T00:21:52.282Z,1023.4
2018-12-19T00:26:52.520Z,1023.5
2018-12-19T00:31:52.455Z,1023.4
2018-12-19T00:36:52.469Z,1023.4
2018-12-19T00:41:52.302Z,1023.5
2018-12-19T00:46:52.299Z,1023.4
2018-12-19T00:51:52.310Z,1023.1
2018-12-19T00:56:52.312Z,1023.1
2018-12-19T01:01:52.438Z,1023.4
2018-12-19T01:06:52.496Z,1023.5
2018-12-19T01:11:52.314Z,1023.4
2018-12-19T01:16:52.327Z,1023.4
2018-12-19T01:21:52.327Z,1023.1
2018-12-19T01:26:52.319Z,1023.1
2018-12-19T01:31:52.350Z,1023.3
2018-12-19T01:36:52.330Z,1023.3
2018-12-19T01:41:52.325Z,1023.4
2018-12-19T01:46:52.325Z,1023.3
2018-12-19T01:51:52.331Z,1023.3
2018-12-19T01:56:52.337Z,1023.3
2018-12-19T02:01:52.329Z,1023
2018-12-19T02:06:52.347Z,1022.9
2018-12-19T02:11:52.347Z,1022.6
2018-12-19T02:16:52.336Z,1022.5
2018-12-19T02:21:52.367Z,1022.5
2018-12-19T02:26:52.528Z,1022.5
2018-12-19T02:31:52.548Z,1022.3
2018-12-19T02:36:52.353Z,1022.2
2018-12-19T02:41:52.353Z,1022.3
2018-12-19T02:46:52.342Z,1022.3
2018-12-19T02:51:52.560Z,1022.3
2018-12-19T02:56:52.367Z,1022.2
2018-12-19T03:01:52.384Z,1022.2
2018-12-19T03:06:52.377Z,1022.2
2018-12-19T03:11:52.377Z,1022.2
2018-12-19T03:16:52.370Z,1022.1
2018-12-19T03:21:52.375Z,1022.1
2018-12-19T03:26:52.377Z,1022.1
2018-12-19T03:31:52.389Z,1022.1
2018-12-19T03:36:52.436Z,1022
2018-12-19T03:41:52.565Z,1022
2018-12-19T03:46:52.394Z,1021.9
2018-12-19T03:51:52.386Z,1022
2018-12-19T03:56:52.397Z,1021.8
2018-12-19T04:01:52.550Z,1021.8
2018-12-19T04:06:52.603Z,1021.9
2018-12-19T04:11:52.447Z,1022
2018-12-19T04:16:52.559Z,1022
2018-12-19T04:21:52.437Z,1022.3
2018-12-19T04:26:52.431Z,1022.3
2018-12-19T04:31:52.419Z,1022.3
2018-12-19T04:36:52.416Z,1022.2
2018-12-19T04:41:52.419Z,1022.2
2018-12-19T04:46:52.553Z,1022.2
2018-12-19T04:51:52.463Z,1022
2018-12-19T04:56:52.443Z,1022.1
2018-12-19T05:01:52.454Z,1021.9
2018-12-19T05:06:52.432Z,1021.9
2018-12-19T05:11:52.448Z,1022
2018-12-19T05:16:52.648Z,1022
2018-12-19T05:21:52.461Z,1022.2
2018-12-19T05:26:52.475Z,1022.2
2018-12-19T05:31:52.452Z,1022.2
2018-12-19T05:36:52.416Z,1022.3
2018-12-19T05:41:52.480Z,1022.2
2018-12-19T05:46:52.435Z,1022.2
2018-12-19T05:51:52.440Z,1022.3
2018-12-19T05:56:52.465Z,1022.4
2018-12-19T06:01:52.650Z,1022.2
2018-12-19T06:06:52.704Z,1022.3
2018-12-19T06:11:52.524Z,1022.3
2018-12-19T06:16:52.447Z,1022.3
2018-12-19T06:21:52.621Z,1022.5
2018-12-19T06:26:52.487Z,1022.5
2018-12-19T06:31:52.694Z,1022.3
2018-12-19T06:36:52.549Z,1022.7
2018-12-19T06:41:52.478Z,1022.6
2018-12-19T06:46:52.495Z,1022.7
2018-12-19T06:51:52.513Z,1022.8
2018-12-19T06:56:52.532Z,1022.8
2018-12-19T07:01:52.514Z,1023.1
2018-12-19T07:06:52.517Z,1023
2018-12-19T07:11:52.611Z,1023.4
2018-12-19T07:16:52.486Z,1023.5
2018-12-19T07:21:52.527Z,1023.5
2018-12-19T07:26:52.732Z,1023.6
2018-12-19T07:31:52.534Z,1023.7
2018-12-19T07:36:52.553Z,1023.8
2018-12-19T07:41:52.489Z,1023.8
2018-12-19T07:46:52.566Z,1023.9
2018-12-19T07:51:52.658Z,1023.8
2018-12-19T07:56:52.541Z,1023.9
2018-12-19T08:01:52.522Z,1023.9
2018-12-19T08:06:52.978Z,1024.1
2018-12-19T08:11:52.757Z,1024.1
2018-12-19T08:16:52.684Z,1024.3
2018-12-19T08:21:52.701Z,1024.3
2018-12-19T08:26:52.535Z,1024.3
2018-12-19T08:31:52.715Z,1024.3
2018-12-19T08:36:52.532Z,1024.3
2018-12-19T08:41:52.568Z,1024.3
2018-12-19T08:46:52.549Z,1024.2
2018-12-19T08:51:52.629Z,1024.1
2018-12-19T08:56:52.570Z,1024.2
2018-12-19T09:01:52.676Z,1024.3
2018-12-19T09:06:52.563Z,1024.2
2018-12-19T09:11:52.718Z,1024.2
2018-12-19T09:16:52.563Z,1024.3
2018-12-19T09:21:52.792Z,1024.4
2018-12-19T09:26:52.741Z,1024.3
2018-12-19T09:31:52.550Z,1024.1
2018-12-19T09:36:52.598Z,1024.1
2018-12-19T09:41:52.604Z,1024.1
2018-12-19T09:46:52.756Z,1024
2018-12-19T09:51:52.583Z,1023.9
2018-12-19T09:56:53.920Z,1023.9
2018-12-19T10:01:52.581Z,1023.9
2018-12-19T10:06:52.571Z,1023.8
2018-12-19T10:11:52.589Z,1023.8
2018-12-19T10:16:52.745Z,1023.7
2018-12-19T10:21:52.601Z,1023.6
2018-12-19T10:26:52.582Z,1023.5
2018-12-19T10:31:52.596Z,1023.5
2018-12-19T10:36:52.820Z,1023.5
2018-12-19T10:41:52.581Z,1023.5
2018-12-19T10:46:52.739Z,1023.3
2018-12-19T10:51:52.616Z,1023.4
2018-12-19T10:56:52.614Z,1023.4
2018-12-19T11:01:52.624Z,1023.3
2018-12-19T11:06:52.791Z,1023.2
2018-12-19T11:11:52.826Z,1023.2
2018-12-19T11:16:52.614Z,1023.1
2018-12-19T11:21:53.804Z,1023.1
2018-12-19T11:26:52.614Z,1023.1
2018-12-19T11:31:52.654Z,1023
2018-12-19T11:36:52.820Z,1023
2018-12-19T11:41:52.825Z,1023
2018-12-19T11:46:52.636Z,1023
2018-12-19T11:51:52.814Z,1023
2018-12-19T11:56:52.830Z,1023
2018-12-19T12:01:52.639Z,1022.9
2018-12-19T12:06:52.630Z,1022.7
2018-12-19T12:11:52.654Z,1022.6
2018-12-19T12:16:52.640Z,1022.6
2018-12-19T12:21:52.675Z,1022.5
2018-12-19T12:26:52.646Z,1022.4
2018-12-19T12:31:52.665Z,1022.3
2018-12-19T12:36:52.678Z,1022.3
2018-12-19T12:41:53.030Z,1022.1
2018-12-19T12:46:52.672Z,1022.1
2018-12-19T12:51:52.908Z,1022
2018-12-19T12:56:52.689Z,1022
2018-12-19T13:01:52.701Z,1022
2018-12-19T13:06:52.665Z,1022
2018-12-19T13:11:59.319Z,1021.9
2018-12-19T13:16:52.742Z,1021.9
2018-12-19T13:21:52.678Z,1021.9
2018-12-19T13:26:52.978Z,1021.8
2018-12-19T13:31:52.712Z,1021.8
2018-12-19T13:36:52.710Z,1021.8
2018-12-19T13:41:52.676Z,1021.7
2018-12-19T13:46:52.853Z,1021.7
2018-12-19T13:51:52.700Z,1021.7
2018-12-19T13:56:52.724Z,1021.6
2018-12-19T14:01:52.868Z,1021.5
2018-12-19T14:06:52.914Z,1021.6
2018-12-19T14:11:57.150Z,1021.5
2018-12-19T14:16:52.821Z,1021.5
2018-12-19T14:21:52.710Z,1021.6
2018-12-19T14:26:52.706Z,1021.6
2018-12-19T14:31:52.774Z,1021.5
2018-12-19T14:36:52.709Z,1021.3
2018-12-19T14:41:52.899Z,1021.3
2018-12-19T14:46:52.750Z,1021.2
2018-12-19T14:51:52.863Z,1021.2
2018-12-19T14:56:52.871Z,1021.3
2018-12-19T15:01:53.042Z,1021.4
2018-12-19T15:06:52.745Z,1021.4
2018-12-19T15:12:04.020Z,1021.4
2018-12-19T15:16:52.724Z,1021.5
2018-12-19T15:21:52.766Z,1021.5
2018-12-19T15:26:53.035Z,1021.5
2018-12-19T15:31:52.754Z,1021.4
2018-12-19T15:36:55.475Z,1021.4
2018-12-19T15:41:53.445Z,1021.6
2018-12-19T15:46:52.910Z,1021.5
2018-12-19T15:51:53.197Z,1021.4
2018-12-19T15:56:57.679Z,1021.3
2018-12-19T16:01:52.959Z,1021
2018-12-19T16:06:54.978Z,1021
2018-12-19T16:11:52.884Z,1020.8
2018-12-19T16:16:53.158Z,1020.8
2018-12-19T16:22:00.121Z,1020.8
2018-12-19T16:26:53.029Z,1020.6
2018-12-19T16:31:53.977Z,1020.4
2018-12-19T16:36:53.287Z,1020.5
2018-12-19T16:41:58.991Z,1020.6
2018-12-19T16:46:55.816Z,1020.5
2018-12-19T16:51:54.128Z,1020.6
2018-12-19T16:57:03.935Z,1020.7
2018-12-19T17:01:54.485Z,1020.5
2018-12-19T17:06:53.461Z,1020.6
2018-12-19T17:11:53.356Z,1020.6
2018-12-19T17:16:53.656Z,1020.4
2018-12-19T17:21:55.842Z,1020.2
2018-12-19T17:26:53.913Z,1020.3
2018-12-19T17:31:55.789Z,1020.2
2018-12-19T17:36:55.865Z,1020.2
2018-12-19T17:41:52.965Z,1020.1
2018-12-19T17:46:52.955Z,1020
2018-12-19T17:51:56.056Z,1020
2018-12-19T17:57:02.141Z,1019.9
2018-12-19T18:01:52.824Z,1019.9
2018-12-19T18:06:53.302Z,1019.8
2018-12-19T18:11:53.417Z,1019.6
2018-12-19T18:16:55.580Z,1019.6
2018-12-19T18:21:53.110Z,1019.6
2018-12-19T18:27:01.209Z,1019.6
2018-12-19T18:31:53.827Z,1019.7
2018-12-19T18:36:55.063Z,1019.6
2018-12-19T18:41:53.098Z,1019.7
2018-12-19T18:46:53.078Z,1019.8
2018-12-19T18:51:53.055Z,1019.9
2018-12-19T18:56:53.603Z,1019.9
2018-12-19T19:01:53.084Z,1019.9
2018-12-19T19:06:57.460Z,1019.9
2018-12-19T19:11:53.614Z,1019.9
2018-12-19T19:16:54.463Z,1019.7
2018-12-19T19:21:53.342Z,1019.7
2018-12-19T19:27:14.220Z,1019.7
2018-12-19T19:31:54.521Z,1019.6
2018-12-19T19:36:54.541Z,1019.5
2018-12-19T19:41:53.025Z,1019.5
2018-12-19T19:46:56.918Z,1019.5
2018-12-19T19:51:54.399Z,1019.6
2018-12-19T19:57:41.802Z,1019.7
2018-12-19T20:01:53.511Z,1019.8
2018-12-19T20:07:02.548Z,1019.7
2018-12-19T20:11:53.548Z,1019.7
2018-12-19T20:16:54.380Z,1019.6
2018-12-19T20:21:53.570Z,1019.6
2018-12-19T20:26:54.094Z,1019.6
2018-12-19T20:31:53.678Z,1019.6
2018-12-19T20:36:54.624Z,1019.8
2018-12-19T20:41:53.549Z,1019.7
2018-12-19T20:46:53.597Z,1019.7
2018-12-19T20:52:02.927Z,1019.6
2018-12-19T20:56:54.750Z,1019.5
2018-12-19T21:01:54.058Z,1019.3
2018-12-19T21:06:53.636Z,1019.4
2018-12-19T21:11:53.723Z,1019.4
2018-12-19T21:16:53.663Z,1019.4
2018-12-19T21:21:56.659Z,1019.4
2018-12-19T21:26:54.711Z,1019.2
2018-12-19T21:31:53.711Z,1019.1
2018-12-19T21:36:53.872Z,1019.2
2018-12-19T21:41:53.834Z,1019.4
2018-12-19T21:46:53.781Z,1019.6
2018-12-19T21:51:53.755Z,1019.5
2018-12-19T21:56:53.808Z,1019.7
2018-12-19T22:01:53.844Z,1019.8
2018-12-19T22:06:53.921Z,1019.8
2018-12-19T22:11:54.037Z,1019.6
2018-12-19T22:16:53.872Z,1019.5
2018-12-19T22:21:53.970Z,1019.4
2018-12-19T22:26:53.774Z,1019.4
2018-12-19T22:31:54.016Z,1019.4
2018-12-19T22:36:54.023Z,1019.5
2018-12-19T22:41:54.028Z,1019.4
2018-12-19T22:46:53.872Z,1019.4
2018-12-19T22:51:54.092Z,1019.3
2018-12-19T22:56:53.787Z,1019.5
2018-12-19T23:01:54.042Z,1019.4
2018-12-19T23:06:54.749Z,1019.5
2018-12-19T23:11:54.175Z,1019.4
2018-12-19T23:16:54.119Z,1019.4
2018-12-19T23:21:54.110Z,1019.6
2018-12-19T23:26:53.913Z,1019.5
2018-12-19T23:31:54.153Z,1019.6
2018-12-19T23:36:54.192Z,1019.5
2018-12-19T23:41:54.143Z,1019.5
2018-12-19T23:46:54.020Z,1019.3
2018-12-19T23:51:53.907Z,1019.4
2018-12-19T23:56:54.128Z,1019.3
